createdAt,value
2023-05-05T00:00:18.814Z,12.88
2023-05-05T00:01:18.705Z,12.84
2023-05-05T00:02:18.433Z,12.84
2023-05-05T00:03:18.732Z,12.86
2023-05-05T00:04:18.862Z,12.83
2023-05-05T00:05:18.950Z,12.84
2023-05-05T00:06:18.868Z,12.84
2023-05-05T00:07:18.237Z,12.86
2023-05-05T00:08:18.918Z,12.83
2023-05-05T00:09:18.843Z,12.81
2023-05-05T00:10:18.473Z,12.80
2023-05-05T00:11:17.965Z,12.81
2023-05-05T00:12:18.384Z,12.79
2023-05-05T00:13:17.894Z,12.80
2023-05-05T00:14:17.996Z,12.77
2023-05-05T00:15:18.001Z,12.77
2023-05-05T00:16:18.008Z,12.76
2023-05-05T00:17:18.097Z,12.79
2023-05-05T00:18:17.943Z,12.77
2023-05-05T00:19:17.919Z,12.77
2023-05-05T00:20:18.055Z,12.79
2023-05-05T00:21:18.036Z,12.71
2023-05-05T00:22:18.044Z,12.72
2023-05-05T00:23:18.045Z,12.66
2023-05-05T00:24:18.164Z,12.63
2023-05-05T00:25:18.284Z,12.65
2023-05-05T00:26:18.284Z,12.62
2023-05-05T00:27:18.383Z,12.62
2023-05-05T00:28:18.083Z,12.61
2023-05-05T00:29:17.787Z,12.58
2023-05-05T00:30:18.093Z,12.58
2023-05-05T00:31:18.241Z,12.58
2023-05-05T00:32:18.322Z,12.50
2023-05-05T00:33:18.120Z,12.47
2023-05-05T00:34:17.738Z,12.46
2023-05-05T00:35:18.634Z,12.44
2023-05-05T00:36:18.177Z,12.47
2023-05-05T00:37:17.947Z,12.47
2023-05-05T00:38:18.500Z,12.48
2023-05-05T00:39:18.761Z,12.50
2023-05-05T00:40:18.684Z,12.50
2023-05-05T00:41:17.700Z,12.50
2023-05-05T00:42:17.685Z,12.48
2023-05-05T00:43:17.693Z,12.53
2023-05-05T00:44:17.700Z,12.53
2023-05-05T00:45:17.721Z,12.59
2023-05-05T00:46:17.715Z,12.59
2023-05-05T00:47:17.712Z,12.55
2023-05-05T00:48:17.720Z,12.58
2023-05-05T00:49:17.667Z,12.59
2023-05-05T00:50:17.738Z,12.59
2023-05-05T00:51:17.651Z,12.59
2023-05-05T00:52:17.753Z,12.59
2023-05-05T00:53:17.872Z,12.58
2023-05-05T00:54:17.873Z,12.61
2023-05-05T00:55:17.874Z,12.61
2023-05-05T00:56:17.873Z,12.61
2023-05-05T00:57:17.887Z,12.62
2023-05-05T00:58:17.632Z,12.62
2023-05-05T00:59:17.598Z,12.58
2023-05-05T01:00:17.697Z,12.59
2023-05-05T01:01:17.933Z,12.55
2023-05-05T01:02:17.918Z,12.59
2023-05-05T01:03:18.001Z,12.61
2023-05-05T01:04:17.941Z,12.55
2023-05-05T01:05:17.634Z,12.62
2023-05-05T01:06:17.840Z,12.62
2023-05-05T01:07:17.544Z,12.63
2023-05-05T01:08:17.752Z,12.63
2023-05-05T01:09:17.562Z,12.65
2023-05-05T01:10:20.633Z,12.65
2023-05-05T01:11:17.487Z,12.68
2023-05-05T01:12:17.514Z,12.65
2023-05-05T01:13:17.605Z,12.65
2023-05-05T01:14:17.612Z,12.66
2023-05-05T01:15:17.506Z,12.65
2023-05-05T01:16:17.643Z,12.71
2023-05-05T01:17:17.565Z,12.68
2023-05-05T01:18:17.722Z,12.68
2023-05-05T01:19:17.421Z,12.68
2023-05-05T01:20:17.425Z,12.69
2023-05-05T01:21:17.434Z,12.68
2023-05-05T01:22:17.450Z,12.68
2023-05-05T01:23:17.454Z,12.62
2023-05-05T01:24:17.506Z,12.63
2023-05-05T01:25:17.488Z,12.63
2023-05-05T01:26:17.381Z,12.62
2023-05-05T01:27:17.376Z,12.66
2023-05-05T01:28:17.387Z,12.61
2023-05-05T01:29:17.394Z,12.63
2023-05-05T01:30:17.396Z,12.62
2023-05-05T01:31:17.457Z,12.62
2023-05-05T01:32:17.413Z,12.63
2023-05-05T01:33:17.420Z,12.66
2023-05-05T01:34:17.439Z,12.62
2023-05-05T01:35:17.434Z,12.62
2023-05-05T01:36:17.346Z,12.59
2023-05-05T01:37:17.462Z,12.54
2023-05-05T01:38:17.362Z,12.47
2023-05-05T01:39:17.322Z,12.46
2023-05-05T01:40:17.367Z,12.43
2023-05-05T01:41:17.299Z,12.41
2023-05-05T01:42:17.381Z,12.36
2023-05-05T01:43:17.387Z,12.35
2023-05-05T01:44:17.283Z,12.33
2023-05-05T01:45:17.522Z,12.35
2023-05-05T01:46:17.625Z,12.32
2023-05-05T01:47:17.671Z,12.29
2023-05-05T01:48:17.253Z,12.26
2023-05-05T01:49:17.568Z,12.15
2023-05-05T01:50:17.338Z,12.14
2023-05-05T01:51:17.654Z,12.11
2023-05-05T01:52:17.239Z,12.11
2023-05-05T01:53:17.355Z,12.07
2023-05-05T01:54:17.737Z,12.07
2023-05-05T01:55:17.486Z,12.07
2023-05-05T01:56:17.573Z,11.99
2023-05-05T01:57:17.790Z,11.93
2023-05-05T01:58:17.807Z,11.88
2023-05-05T01:59:17.806Z,11.87
2023-05-05T02:00:17.816Z,11.88
2023-05-05T02:01:17.644Z,11.88
2023-05-05T02:02:17.142Z,11.85
2023-05-05T02:03:17.705Z,11.85
2023-05-05T02:04:17.134Z,11.84
2023-05-05T02:05:17.143Z,11.82
2023-05-05T02:06:17.137Z,11.85
2023-05-05T02:07:17.160Z,11.82
2023-05-05T02:08:17.263Z,11.84
2023-05-05T02:09:17.166Z,11.79
2023-05-05T02:10:17.159Z,11.80
2023-05-05T02:11:17.083Z,11.82
2023-05-05T02:12:17.101Z,11.84
2023-05-05T02:13:17.283Z,11.87
2023-05-05T02:14:17.116Z,11.88
2023-05-05T02:15:17.116Z,11.89
2023-05-05T02:16:17.232Z,11.89
2023-05-05T02:17:17.125Z,11.91
2023-05-05T02:18:17.125Z,11.89
2023-05-05T02:19:17.146Z,11.97
2023-05-05T02:20:17.146Z,11.97
2023-05-05T02:21:17.163Z,11.99
2023-05-05T02:22:17.159Z,12.03
2023-05-05T02:23:17.166Z,12.04
2023-05-05T02:24:17.268Z,12.10
2023-05-05T02:25:17.282Z,12.15
2023-05-05T02:26:17.285Z,12.18
2023-05-05T02:27:17.616Z,12.22
2023-05-05T02:28:17.320Z,12.18
2023-05-05T02:29:17.097Z,12.22
2023-05-05T02:30:17.424Z,12.23
2023-05-05T02:31:16.955Z,12.22
2023-05-05T02:32:16.921Z,12.22
2023-05-05T02:33:16.949Z,12.21
2023-05-05T02:34:16.938Z,12.18
2023-05-05T02:35:16.948Z,12.22
2023-05-05T02:36:16.938Z,12.18
2023-05-05T02:37:16.967Z,12.21
2023-05-05T02:38:16.961Z,12.21
2023-05-05T02:39:16.876Z,12.14
2023-05-05T02:40:16.871Z,12.14
2023-05-05T02:41:16.888Z,12.10
2023-05-05T02:42:16.891Z,12.08
2023-05-05T02:43:17.075Z,12.10
2023-05-05T02:44:16.918Z,12.11
2023-05-05T02:45:16.923Z,12.07
2023-05-05T02:46:16.941Z,11.99
2023-05-05T02:47:16.933Z,11.93
2023-05-05T02:48:16.924Z,11.91
2023-05-05T02:49:16.929Z,11.80
2023-05-05T02:50:16.834Z,11.77
2023-05-05T02:51:16.954Z,11.74
2023-05-05T02:52:16.957Z,11.70
2023-05-05T02:53:16.962Z,11.69
2023-05-05T02:54:16.766Z,11.69
2023-05-05T02:55:16.982Z,11.69
2023-05-05T02:56:16.979Z,11.69
2023-05-05T02:57:16.882Z,11.69
2023-05-05T02:58:17.106Z,11.67
2023-05-05T02:59:17.118Z,11.70
2023-05-05T03:00:16.810Z,11.69
2023-05-05T03:01:16.740Z,11.70
2023-05-05T03:02:16.874Z,11.71
2023-05-05T03:03:16.919Z,11.76
2023-05-05T03:04:16.940Z,11.77
2023-05-05T03:05:16.942Z,11.79
2023-05-05T03:06:16.958Z,11.80
2023-05-05T03:07:16.673Z,11.82
2023-05-05T03:08:16.670Z,11.87
2023-05-05T03:09:16.670Z,11.91
2023-05-05T03:10:16.684Z,11.89
2023-05-05T03:11:16.778Z,11.91
2023-05-05T03:12:16.796Z,11.95
2023-05-05T03:13:16.902Z,11.93
2023-05-05T03:14:16.907Z,11.91
2023-05-05T03:15:17.023Z,11.91
2023-05-05T03:16:17.076Z,11.96
2023-05-05T03:17:16.926Z,11.96
2023-05-05T03:18:17.148Z,11.97
2023-05-05T03:19:16.607Z,12.00
2023-05-05T03:20:17.279Z,12.04
2023-05-05T03:21:16.560Z,12.04
2023-05-05T03:22:16.774Z,12.04
2023-05-05T03:23:16.575Z,12.08
2023-05-05T03:24:16.861Z,12.07
2023-05-05T03:25:17.088Z,12.10
2023-05-05T03:26:16.589Z,12.10
2023-05-05T03:27:16.551Z,12.11
2023-05-05T03:28:16.520Z,12.17
2023-05-05T03:29:16.534Z,12.15
2023-05-05T03:30:16.530Z,12.15
2023-05-05T03:31:16.592Z,12.18
2023-05-05T03:32:16.532Z,12.23
2023-05-05T03:33:16.505Z,12.23
2023-05-05T03:34:17.316Z,12.23
2023-05-05T03:35:17.153Z,12.28
2023-05-05T03:36:16.650Z,12.32
2023-05-05T03:37:16.550Z,12.33
2023-05-05T03:38:17.447Z,12.36
2023-05-05T03:39:16.467Z,12.38
2023-05-05T03:40:16.475Z,12.38
2023-05-05T03:41:16.482Z,12.41
2023-05-05T03:42:16.422Z,12.46
2023-05-05T03:43:16.433Z,12.48
2023-05-05T03:44:16.493Z,12.53
2023-05-05T03:45:16.616Z,12.53
2023-05-05T03:46:16.479Z,12.54
2023-05-05T03:47:16.735Z,12.54
2023-05-05T03:48:16.541Z,12.62
2023-05-05T03:49:16.451Z,12.63
2023-05-05T03:50:16.431Z,12.65
2023-05-05T03:51:16.755Z,12.66
2023-05-05T03:52:16.361Z,12.71
2023-05-05T03:53:16.371Z,12.72
2023-05-05T03:54:16.373Z,12.79
2023-05-05T03:55:16.385Z,12.83
2023-05-05T03:56:16.496Z,12.87
2023-05-05T03:57:16.507Z,12.98
2023-05-05T03:58:16.408Z,13.06
2023-05-05T03:59:16.425Z,13.14
2023-05-05T04:00:16.533Z,13.19
2023-05-05T04:01:16.735Z,13.29
2023-05-05T04:02:18.477Z,13.39
2023-05-05T04:03:16.998Z,13.47
2023-05-05T04:04:16.385Z,13.61
2023-05-05T04:05:16.463Z,13.79
2023-05-05T04:06:16.972Z,13.93
2023-05-05T04:07:16.587Z,14.13
2023-05-05T04:08:16.984Z,14.46
2023-05-05T04:09:17.100Z,14.78
2023-05-05T04:10:17.120Z,15.15
2023-05-05T04:11:17.090Z,15.36
2023-05-05T04:12:16.308Z,15.48
2023-05-05T04:13:16.410Z,15.60
2023-05-05T04:14:16.345Z,15.65
2023-05-05T04:15:16.341Z,15.69
2023-05-05T04:16:16.464Z,15.73
2023-05-05T04:17:16.547Z,15.72
2023-05-05T04:18:17.744Z,15.78
2023-05-05T04:19:16.236Z,15.80
2023-05-05T04:20:16.572Z,15.88
2023-05-05T04:21:16.777Z,15.93
2023-05-05T04:22:16.681Z,15.98
2023-05-05T04:23:16.893Z,16.03
2023-05-05T04:24:16.900Z,16.06
2023-05-05T04:25:16.195Z,16.16
2023-05-05T04:26:16.287Z,16.21
2023-05-05T04:27:16.711Z,16.25
2023-05-05T04:28:16.200Z,16.26
2023-05-05T04:29:16.214Z,16.29
2023-05-05T04:30:16.543Z,16.36
2023-05-05T04:31:16.996Z,16.40
2023-05-05T04:32:16.945Z,16.46
2023-05-05T04:33:16.233Z,16.44
2023-05-05T04:34:16.939Z,16.44
2023-05-05T04:35:17.099Z,16.51
2023-05-05T04:36:16.268Z,16.57
2023-05-05T04:37:16.086Z,16.61
2023-05-05T04:38:16.092Z,16.64
2023-05-05T04:39:16.080Z,16.64
2023-05-05T04:40:16.081Z,16.72
2023-05-05T04:41:16.094Z,16.77
2023-05-05T04:42:16.089Z,16.72
2023-05-05T04:43:16.113Z,16.73
2023-05-05T04:44:16.254Z,16.77
2023-05-05T04:45:16.026Z,16.79
2023-05-05T04:46:16.164Z,16.77
2023-05-05T04:47:16.030Z,16.79
2023-05-05T04:48:16.043Z,16.80
2023-05-05T04:49:16.051Z,16.87
2023-05-05T04:50:16.064Z,16.84
2023-05-05T04:51:16.177Z,16.88
2023-05-05T04:52:16.164Z,16.92
2023-05-05T04:53:16.286Z,16.97
2023-05-05T04:54:16.003Z,16.95
2023-05-05T04:55:15.978Z,16.97
2023-05-05T04:56:15.939Z,16.95
2023-05-05T04:57:15.923Z,16.94
2023-05-05T04:58:16.013Z,16.91
2023-05-05T04:59:16.008Z,16.91
2023-05-05T05:00:16.030Z,16.94
2023-05-05T05:01:15.905Z,16.97
2023-05-05T05:02:15.997Z,17.01
2023-05-05T05:03:16.071Z,17.02
2023-05-05T05:04:16.029Z,17.09
2023-05-05T05:05:16.034Z,17.19
2023-05-05T05:06:15.962Z,17.22
2023-05-05T05:07:16.041Z,17.27
2023-05-05T05:08:16.056Z,17.28
2023-05-05T05:09:16.071Z,17.32
2023-05-05T05:10:15.840Z,17.38
2023-05-05T05:11:15.841Z,17.41
2023-05-05T05:12:15.849Z,17.45
2023-05-05T05:13:15.980Z,17.49
2023-05-05T05:14:15.940Z,17.52
2023-05-05T05:15:15.990Z,17.59
2023-05-05T05:16:16.072Z,17.63
2023-05-05T05:17:16.094Z,17.71
2023-05-05T05:18:16.079Z,17.72
2023-05-05T05:19:16.252Z,17.75
2023-05-05T05:20:16.149Z,17.83
2023-05-05T05:21:16.244Z,17.78
2023-05-05T05:22:15.759Z,17.79
2023-05-05T05:23:16.008Z,17.78
2023-05-05T05:24:15.837Z,17.76
2023-05-05T05:25:16.097Z,17.79
2023-05-05T05:26:15.712Z,17.76
2023-05-05T05:27:15.839Z,17.75
2023-05-05T05:28:16.318Z,17.69
2023-05-05T05:29:15.905Z,17.71
2023-05-05T05:30:15.969Z,17.69
2023-05-05T05:31:16.021Z,17.73
2023-05-05T05:32:16.166Z,17.71
2023-05-05T05:33:15.859Z,17.68
2023-05-05T05:34:16.148Z,17.69
2023-05-05T05:35:16.198Z,17.68
2023-05-05T05:36:15.765Z,17.68
2023-05-05T05:37:15.986Z,17.71
2023-05-05T05:38:16.080Z,17.68
2023-05-05T05:39:15.613Z,17.69
2023-05-05T05:40:15.644Z,17.68
2023-05-05T05:41:15.616Z,17.71
2023-05-05T05:42:15.624Z,17.76
2023-05-05T05:43:15.588Z,17.72
2023-05-05T05:44:15.653Z,17.72
2023-05-05T05:45:15.693Z,17.72
2023-05-05T05:46:15.667Z,17.76
2023-05-05T05:47:15.687Z,17.79
2023-05-05T05:48:15.808Z,17.78
2023-05-05T05:49:15.714Z,17.78
2023-05-05T05:50:15.737Z,17.83
2023-05-05T05:51:15.744Z,17.87
2023-05-05T05:52:15.765Z,17.87
2023-05-05T05:53:15.779Z,17.91
2023-05-05T05:54:15.785Z,17.91
2023-05-05T05:55:15.795Z,17.90
2023-05-05T05:56:15.796Z,17.97
2023-05-05T05:57:15.821Z,18.01
2023-05-05T05:58:15.828Z,17.99
2023-05-05T05:59:15.836Z,17.93
2023-05-05T06:00:15.883Z,17.99
2023-05-05T06:01:15.520Z,17.96
2023-05-05T06:02:15.911Z,18.05
2023-05-05T06:03:16.018Z,18.02
2023-05-05T06:04:15.570Z,18.01
2023-05-05T06:05:15.842Z,18.06
2023-05-05T06:06:15.553Z,18.13
2023-05-05T06:07:15.811Z,18.17
2023-05-05T06:08:15.969Z,18.17
2023-05-05T06:09:15.406Z,18.11
2023-05-05T06:10:27.226Z,18.11
2023-05-05T06:11:15.411Z,18.11
2023-05-05T06:12:15.456Z,18.11
2023-05-05T06:13:15.560Z,18.18
2023-05-05T06:14:16.318Z,18.17
2023-05-05T06:15:15.699Z,18.20
2023-05-05T06:16:15.815Z,18.20
2023-05-05T06:17:15.549Z,18.15
2023-05-05T06:18:15.479Z,18.24
2023-05-05T06:19:15.545Z,18.38
2023-05-05T06:20:16.016Z,18.45
2023-05-05T06:21:16.001Z,18.51
2023-05-05T06:22:15.730Z,18.56
2023-05-05T06:23:15.320Z,18.67
2023-05-05T06:24:16.162Z,18.70
2023-05-05T06:25:15.308Z,18.79
2023-05-05T06:26:15.642Z,18.83
2023-05-05T06:27:15.670Z,18.83
2023-05-05T06:28:16.224Z,18.96
2023-05-05T06:29:16.132Z,19.00
2023-05-05T06:30:15.372Z,18.98
2023-05-05T06:31:15.281Z,18.97
2023-05-05T06:32:15.311Z,19.04
2023-05-05T06:33:15.375Z,19.05
2023-05-05T06:34:15.451Z,19.16
2023-05-05T06:35:15.280Z,19.17
2023-05-05T06:36:15.447Z,19.12
2023-05-05T06:37:15.324Z,19.16
2023-05-05T06:38:15.674Z,19.16
2023-05-05T06:39:16.142Z,19.15
2023-05-05T06:40:15.235Z,19.17
2023-05-05T06:41:15.179Z,19.23
2023-05-05T06:42:15.167Z,19.30
2023-05-05T06:43:15.156Z,19.31
2023-05-05T06:44:15.192Z,19.35
2023-05-05T06:45:15.191Z,19.34
2023-05-05T06:46:15.188Z,19.37
2023-05-05T06:47:15.825Z,19.24
2023-05-05T06:48:15.232Z,19.17
2023-05-05T06:49:15.252Z,19.15
2023-05-05T06:50:15.261Z,19.05
2023-05-05T06:51:15.262Z,19.09
2023-05-05T06:52:15.283Z,19.19
2023-05-05T06:53:15.296Z,19.23
2023-05-05T06:54:15.308Z,19.27
2023-05-05T06:55:16.115Z,19.27
2023-05-05T06:56:15.089Z,19.23
2023-05-05T06:57:15.084Z,19.15
2023-05-05T06:58:15.085Z,19.08
2023-05-05T06:59:15.098Z,19.15
2023-05-05T07:00:15.130Z,19.12
2023-05-05T07:01:15.220Z,19.01
2023-05-05T07:02:15.027Z,19.01
2023-05-05T07:03:15.234Z,19.05
2023-05-05T07:04:15.059Z,19.04
2023-05-05T07:05:15.190Z,19.01
2023-05-05T07:06:15.222Z,18.96
2023-05-05T07:07:15.191Z,18.91
2023-05-05T07:08:15.000Z,18.86
2023-05-05T07:09:16.989Z,18.86
2023-05-05T07:10:15.087Z,18.93
2023-05-05T07:11:15.127Z,18.93
2023-05-05T07:12:15.184Z,18.79
2023-05-05T07:13:15.004Z,18.71
2023-05-05T07:14:15.293Z,18.71
2023-05-05T07:15:26.752Z,18.78
2023-05-05T07:16:15.363Z,18.88
2023-05-05T07:17:15.347Z,19.01
2023-05-05T07:18:15.374Z,19.04
2023-05-05T07:19:14.934Z,18.97
2023-05-05T07:20:14.942Z,18.93
2023-05-05T07:21:14.990Z,18.96
2023-05-05T07:22:15.046Z,18.91
2023-05-05T07:23:15.082Z,18.82
2023-05-05T07:24:15.151Z,18.83
2023-05-05T07:25:14.958Z,18.85
2023-05-05T07:26:15.247Z,18.82
2023-05-05T07:27:14.873Z,18.94
2023-05-05T07:28:14.878Z,18.97
2023-05-05T07:29:15.414Z,19.09
2023-05-05T07:30:18.121Z,19.05
2023-05-05T07:31:14.831Z,18.96
2023-05-05T07:32:15.164Z,19.05
2023-05-05T07:33:15.444Z,19.19
2023-05-05T07:34:15.571Z,19.32
2023-05-05T07:35:15.420Z,19.49
2023-05-05T07:36:14.803Z,19.60
2023-05-05T07:37:15.607Z,19.63
2023-05-05T07:38:15.261Z,19.62
2023-05-05T07:39:14.770Z,19.42
2023-05-05T07:40:14.782Z,19.37
2023-05-05T07:41:14.772Z,19.38
2023-05-05T07:42:14.914Z,19.44
2023-05-05T07:43:14.764Z,19.53
2023-05-05T07:44:15.035Z,19.62
2023-05-05T07:45:15.035Z,19.62
2023-05-05T07:46:15.236Z,19.56
2023-05-05T07:47:15.146Z,19.52
2023-05-05T07:48:14.792Z,19.47
2023-05-05T07:49:14.753Z,19.49
2023-05-05T07:50:15.337Z,19.38
2023-05-05T07:51:14.674Z,19.34
2023-05-05T07:52:15.483Z,19.35
2023-05-05T07:53:15.422Z,19.47
2023-05-05T07:54:14.775Z,19.39
2023-05-05T07:55:15.124Z,19.44
2023-05-05T07:56:14.653Z,19.52
2023-05-05T07:57:14.685Z,19.45
2023-05-05T07:58:15.425Z,19.39
2023-05-05T07:59:14.881Z,19.53
2023-05-05T08:00:15.045Z,19.57
2023-05-05T08:01:15.316Z,19.67
2023-05-05T08:02:15.314Z,19.71
2023-05-05T08:03:14.616Z,19.78
2023-05-05T08:04:15.520Z,19.92
2023-05-05T08:05:15.355Z,19.89
2023-05-05T08:06:15.080Z,19.90
2023-05-05T08:07:15.450Z,19.78
2023-05-05T08:08:15.629Z,19.81
2023-05-05T08:09:14.558Z,19.93
2023-05-05T08:10:14.563Z,20.15
2023-05-05T08:11:14.554Z,20.41
2023-05-05T08:12:14.620Z,20.49
2023-05-05T08:13:14.696Z,20.48
2023-05-05T08:14:14.569Z,20.52
2023-05-05T08:15:14.789Z,20.60
2023-05-05T08:16:14.924Z,20.79
2023-05-05T08:17:14.941Z,20.86
2023-05-05T08:18:14.652Z,20.92
2023-05-05T08:19:27.581Z,20.88
2023-05-05T08:20:14.936Z,20.61
2023-05-05T08:21:15.163Z,20.39
2023-05-05T08:22:14.514Z,20.34
2023-05-05T08:23:14.742Z,20.30
2023-05-05T08:24:15.179Z,20.36
2023-05-05T08:25:14.943Z,20.25
2023-05-05T08:26:14.475Z,20.19
2023-05-05T08:27:15.304Z,20.08
2023-05-05T08:28:14.472Z,20.15
2023-05-05T08:29:15.017Z,20.11
2023-05-05T08:30:15.189Z,20.07
2023-05-05T08:31:15.453Z,20.04
2023-05-05T08:32:15.336Z,20.09
2023-05-05T08:33:14.719Z,20.15
2023-05-05T08:34:15.094Z,20.11
2023-05-05T08:35:15.326Z,19.97
2023-05-05T08:36:15.462Z,20.04
2023-05-05T08:37:14.348Z,20.14
2023-05-05T08:38:14.386Z,20.02
2023-05-05T08:39:14.476Z,20.00
2023-05-05T08:40:14.674Z,20.07
2023-05-05T08:41:14.327Z,20.18
2023-05-05T08:42:22.440Z,20.26
2023-05-05T08:43:14.461Z,20.22
2023-05-05T08:44:14.607Z,20.25
2023-05-05T08:45:14.707Z,20.12
2023-05-05T08:46:14.389Z,19.94
2023-05-05T08:47:14.370Z,19.90
2023-05-05T08:48:14.602Z,19.89
2023-05-05T08:49:14.741Z,19.93
2023-05-05T08:50:14.870Z,20.00
2023-05-05T08:51:14.382Z,20.07
2023-05-05T08:52:15.087Z,20.00
2023-05-05T08:53:14.512Z,20.12
2023-05-05T08:54:15.269Z,20.19
2023-05-05T08:55:14.997Z,20.29
2023-05-05T08:56:14.234Z,20.29
2023-05-05T08:57:14.256Z,20.25
2023-05-05T08:58:14.243Z,20.23
2023-05-05T08:59:14.229Z,20.17
2023-05-05T09:00:14.210Z,20.12
2023-05-05T09:01:14.363Z,20.17
2023-05-05T09:02:14.369Z,20.30
2023-05-05T09:03:14.677Z,20.39
2023-05-05T09:04:14.181Z,20.50
2023-05-05T09:05:14.157Z,20.61
2023-05-05T09:06:14.212Z,20.55
2023-05-05T09:07:14.202Z,20.36
2023-05-05T09:08:14.188Z,20.42
2023-05-05T09:09:14.193Z,20.42
2023-05-05T09:10:14.124Z,20.44
2023-05-05T09:11:14.134Z,20.41
2023-05-05T09:12:14.232Z,20.29
2023-05-05T09:13:14.270Z,20.22
2023-05-05T09:14:14.218Z,20.26
2023-05-05T09:15:14.144Z,20.41
2023-05-05T09:16:14.316Z,20.50
2023-05-05T09:17:14.297Z,20.58
2023-05-05T09:18:14.313Z,20.61
2023-05-05T09:19:14.344Z,20.67
2023-05-05T09:20:14.381Z,20.41
2023-05-05T09:21:14.346Z,20.37
2023-05-05T09:22:14.358Z,20.39
2023-05-05T09:23:14.401Z,20.44
2023-05-05T09:24:14.383Z,20.56
2023-05-05T09:25:14.418Z,20.70
2023-05-05T09:26:14.447Z,20.83
2023-05-05T09:27:14.428Z,21.01
2023-05-05T09:28:14.024Z,21.20
2023-05-05T09:29:14.482Z,21.13
2023-05-05T09:30:14.467Z,21.14
2023-05-05T09:31:14.483Z,21.29
2023-05-05T09:32:14.489Z,21.35
2023-05-05T09:33:14.579Z,21.34
2023-05-05T09:34:14.068Z,21.29
2023-05-05T09:35:14.543Z,21.13
2023-05-05T09:36:14.258Z,21.08
2023-05-05T09:37:14.006Z,20.86
2023-05-05T09:38:13.946Z,20.98
2023-05-05T09:39:14.023Z,21.20
2023-05-05T09:40:13.964Z,21.43
2023-05-05T09:41:13.937Z,21.35
2023-05-05T09:42:14.198Z,21.20
2023-05-05T09:43:13.937Z,21.20
2023-05-05T09:44:14.308Z,21.22
2023-05-05T09:45:14.378Z,21.19
2023-05-05T09:46:14.184Z,21.20
2023-05-05T09:47:26.027Z,21.30
2023-05-05T09:48:13.986Z,21.37
2023-05-05T09:49:13.880Z,21.55
2023-05-05T09:50:13.930Z,21.48
2023-05-05T09:51:13.884Z,21.26
2023-05-05T09:52:13.849Z,21.28
2023-05-05T09:53:13.846Z,21.38
2023-05-05T09:54:13.823Z,21.62
2023-05-05T09:55:13.897Z,21.60
2023-05-05T09:56:13.886Z,21.63
2023-05-05T09:57:13.967Z,21.81
2023-05-05T09:58:14.047Z,22.09
2023-05-05T09:59:13.784Z,22.36
2023-05-05T10:00:13.948Z,22.62
2023-05-05T10:01:13.884Z,22.21
2023-05-05T10:02:13.961Z,21.97
2023-05-05T10:03:14.015Z,22.06
2023-05-05T10:04:13.986Z,22.18
2023-05-05T10:05:14.098Z,22.30
2023-05-05T10:06:14.005Z,22.41
2023-05-05T10:07:13.941Z,22.48
2023-05-05T10:08:13.752Z,22.49
2023-05-05T10:09:13.721Z,22.19
2023-05-05T10:10:13.726Z,22.13
2023-05-05T10:11:13.851Z,21.97
2023-05-05T10:12:13.923Z,21.97
2023-05-05T10:13:13.724Z,22.04
2023-05-05T10:14:14.014Z,22.11
2023-05-05T10:15:13.898Z,22.00
2023-05-05T10:16:13.756Z,21.88
2023-05-05T10:17:13.971Z,21.58
2023-05-05T10:18:13.724Z,21.55
2023-05-05T10:19:14.182Z,21.48
2023-05-05T10:20:14.188Z,21.50
2023-05-05T10:21:13.759Z,21.75
2023-05-05T10:22:13.811Z,22.07
2023-05-05T10:23:14.245Z,22.49
2023-05-05T10:24:14.239Z,22.64
2023-05-05T10:25:14.252Z,22.59
2023-05-05T10:26:13.837Z,22.46
2023-05-05T10:27:13.578Z,22.71
2023-05-05T10:28:14.148Z,22.96
2023-05-05T10:29:14.108Z,23.13
2023-05-05T10:30:14.332Z,23.25
2023-05-05T10:31:24.150Z,22.91
2023-05-05T10:32:37.066Z,22.55
2023-05-05T10:33:30.304Z,22.48
2023-05-05T10:34:14.064Z,22.31
2023-05-05T10:35:13.734Z,22.15
2023-05-05T10:36:14.136Z,22.01
2023-05-05T10:37:13.537Z,21.90
2023-05-05T10:38:13.579Z,21.91
2023-05-05T10:39:13.531Z,22.18
2023-05-05T10:40:13.582Z,22.51
2023-05-05T10:41:13.629Z,22.67
2023-05-05T10:42:13.517Z,22.70
2023-05-05T10:43:13.735Z,22.96
2023-05-05T10:44:13.512Z,23.51
2023-05-05T10:45:13.489Z,23.81
2023-05-05T10:46:13.589Z,23.89
2023-05-05T10:47:13.531Z,23.82
2023-05-05T10:48:13.749Z,24.23
2023-05-05T10:49:13.645Z,24.23
2023-05-05T10:50:13.550Z,24.44
2023-05-05T10:51:18.836Z,24.53
2023-05-05T10:52:13.421Z,24.38
2023-05-05T10:53:13.435Z,24.04
2023-05-05T10:54:13.487Z,23.91
2023-05-05T10:55:13.462Z,23.76
2023-05-05T10:56:13.467Z,23.49
2023-05-05T10:57:13.390Z,23.51
2023-05-05T10:58:13.396Z,23.52
2023-05-05T10:59:13.372Z,23.61
2023-05-05T11:00:15.063Z,24.03
2023-05-05T11:01:13.582Z,24.45
2023-05-05T11:02:13.552Z,24.82
2023-05-05T11:03:13.414Z,25.03
2023-05-05T11:04:13.348Z,25.01
2023-05-05T11:05:13.435Z,24.91
2023-05-05T11:06:13.384Z,24.21
2023-05-05T11:07:15.379Z,24.19
2023-05-05T11:08:13.329Z,24.22
2023-05-05T11:09:13.334Z,24.31
2023-05-05T11:10:13.356Z,24.68
2023-05-05T11:11:13.306Z,24.81
2023-05-05T11:12:13.375Z,24.76
2023-05-05T11:13:13.411Z,24.84
2023-05-05T11:14:13.287Z,25.21
2023-05-05T11:15:13.415Z,25.43
2023-05-05T11:16:13.467Z,25.34
2023-05-05T11:17:13.273Z,25.31
2023-05-05T11:18:13.502Z,25.09
2023-05-05T11:19:13.470Z,24.44
2023-05-05T11:20:13.531Z,24.22
2023-05-05T11:21:13.489Z,24.60
2023-05-05T11:22:13.396Z,24.99
2023-05-05T11:23:16.642Z,24.75
2023-05-05T11:24:13.523Z,24.82
2023-05-05T11:25:13.539Z,25.06
2023-05-05T11:26:13.185Z,25.46
2023-05-05T11:27:13.313Z,25.67
2023-05-05T11:28:13.156Z,25.73
2023-05-05T11:29:13.196Z,25.71
2023-05-05T11:30:13.386Z,25.68
2023-05-05T11:31:13.181Z,25.93
2023-05-05T11:32:13.179Z,25.93
2023-05-05T11:33:13.228Z,26.16
2023-05-05T11:34:13.159Z,26.23
2023-05-05T11:35:13.321Z,26.31
2023-05-05T11:36:13.240Z,26.19
2023-05-05T11:37:13.235Z,25.90
2023-05-05T11:38:13.376Z,25.59
2023-05-05T11:39:13.446Z,25.56
2023-05-05T11:40:13.482Z,24.85
2023-05-05T11:41:13.073Z,25.00
2023-05-05T11:42:13.609Z,24.38
2023-05-05T11:43:13.687Z,23.86
2023-05-05T11:44:13.497Z,23.15
2023-05-05T11:45:13.675Z,23.13
2023-05-05T11:46:13.733Z,23.71
2023-05-05T11:47:13.124Z,23.91
2023-05-05T11:48:13.359Z,23.73
2023-05-05T11:49:13.699Z,23.59
2023-05-05T11:50:13.434Z,23.51
2023-05-05T11:51:13.127Z,23.60
2023-05-05T11:52:13.887Z,23.46
2023-05-05T11:53:13.501Z,23.52
2023-05-05T11:54:13.340Z,23.73
2023-05-05T11:55:12.980Z,24.10
2023-05-05T11:56:13.934Z,24.60
2023-05-05T11:57:13.046Z,25.04
2023-05-05T11:58:12.983Z,25.27
2023-05-05T11:59:13.061Z,25.41
2023-05-05T12:00:13.378Z,25.28
2023-05-05T12:01:13.199Z,25.38
2023-05-05T12:02:12.953Z,25.53
2023-05-05T12:03:13.013Z,25.52
2023-05-05T12:04:13.136Z,25.70
2023-05-05T12:05:12.998Z,25.70
2023-05-05T12:06:13.050Z,25.41
2023-05-05T12:07:13.130Z,25.31
2023-05-05T12:08:13.178Z,25.82
2023-05-05T12:09:13.241Z,26.16
2023-05-05T12:10:12.941Z,26.03
2023-05-05T12:11:13.351Z,26.38
2023-05-05T12:12:13.019Z,26.53
2023-05-05T12:13:12.934Z,26.56
2023-05-05T12:14:13.347Z,26.68
2023-05-05T12:15:13.535Z,26.93
2023-05-05T12:16:12.962Z,27.12
2023-05-05T12:17:12.897Z,26.93
2023-05-05T12:18:12.966Z,26.71
2023-05-05T12:19:12.865Z,26.68
2023-05-05T12:20:13.151Z,26.67
2023-05-05T12:21:12.951Z,26.60
2023-05-05T12:22:12.993Z,26.33
2023-05-05T12:23:13.053Z,26.05
2023-05-05T12:24:13.098Z,25.56
2023-05-05T12:25:12.808Z,25.41
2023-05-05T12:26:13.201Z,25.37
2023-05-05T12:27:13.276Z,25.01
2023-05-05T12:28:13.309Z,24.91
2023-05-05T12:29:13.368Z,24.23
2023-05-05T12:30:12.949Z,23.91
2023-05-05T12:31:13.286Z,23.76
2023-05-05T12:32:13.542Z,23.59
2023-05-05T12:33:12.718Z,23.56
2023-05-05T12:34:12.733Z,23.64
2023-05-05T12:35:12.797Z,23.54
2023-05-05T12:36:12.727Z,23.39
2023-05-05T12:37:12.931Z,23.39
2023-05-05T12:38:13.008Z,23.51
2023-05-05T12:39:13.069Z,23.54
2023-05-05T12:40:13.144Z,23.39
2023-05-05T12:41:12.704Z,23.31
2023-05-05T12:42:12.937Z,23.22
2023-05-05T12:43:13.373Z,23.15
2023-05-05T12:44:12.770Z,23.13
2023-05-05T12:45:12.669Z,23.18
2023-05-05T12:46:12.688Z,23.17
2023-05-05T12:47:12.637Z,23.14
2023-05-05T12:48:12.853Z,23.17
2023-05-05T12:49:12.693Z,23.22
2023-05-05T12:50:12.676Z,23.17
2023-05-05T12:51:13.510Z,23.17
2023-05-05T12:52:13.411Z,22.96